createdAt,value
2023-08-19T00:01:28.193Z,10.02
2023-08-19T00:03:56.590Z,10.68
2023-08-19T00:06:35.248Z,10.97
2023-08-19T00:09:05.931Z,9.43
2023-08-19T00:11:33.880Z,9.98
2023-08-19T00:14:01.978Z,8.57
2023-08-19T00:16:29.754Z,10.00
2023-08-19T00:18:57.976Z,10.60
2023-08-19T00:21:25.770Z,11.40
2023-08-19T00:23:54.348Z,10.43
2023-08-19T00:26:23.473Z,9.93
2023-08-19T00:28:51.162Z,9.77
2023-08-19T00:31:19.048Z,10.25
2023-08-19T00:33:46.804Z,10.88
2023-08-19T00:36:14.654Z,10.30
2023-08-19T00:38:42.423Z,10.27
2023-08-19T00:41:10.555Z,9.07
2023-08-19T00:43:39.712Z,9.95
2023-08-19T00:46:09.331Z,9.27
2023-08-19T00:48:37.674Z,9.77
2023-08-19T00:51:07.014Z,9.82
2023-08-19T00:53:35.665Z,9.05
2023-08-19T00:56:04.162Z,8.82
2023-08-19T00:58:32.228Z,8.18
2023-08-19T01:01:01.345Z,8.67
2023-08-19T01:03:29.354Z,8.45
2023-08-19T01:06:07.765Z,9.07
2023-08-19T01:08:42.734Z,8.93
2023-08-19T01:11:16.570Z,8.90
2023-08-19T01:13:51.015Z,8.85
2023-08-19T01:16:25.221Z,8.45
2023-08-19T01:18:53.425Z,8.18
2023-08-19T01:21:21.677Z,8.70
2023-08-19T01:23:50.334Z,8.30
2023-08-19T01:26:20.235Z,8.77
2023-08-19T01:28:48.551Z,9.17
2023-08-19T01:31:16.686Z,8.85
2023-08-19T01:33:44.601Z,8.98
2023-08-19T01:36:17.135Z,9.10
2023-08-19T01:38:51.193Z,8.43
2023-08-19T01:41:21.535Z,9.15
2023-08-19T01:43:49.409Z,8.57
2023-08-19T01:46:17.661Z,8.57
2023-08-19T01:48:45.372Z,8.77
2023-08-19T01:51:13.083Z,8.50
2023-08-19T01:53:40.834Z,8.82
2023-08-19T01:56:08.517Z,8.07
2023-08-19T01:58:37.766Z,8.87
2023-08-19T02:01:05.550Z,7.68
2023-08-19T02:03:33.584Z,8.57
2023-08-19T02:06:01.412Z,8.77
2023-08-19T02:08:29.117Z,8.32
2023-08-19T02:10:57.070Z,7.68
2023-08-19T02:13:24.803Z,7.45
2023-08-19T02:15:54.208Z,7.07
2023-08-19T02:18:23.689Z,7.78
2023-08-19T02:20:51.434Z,7.97
2023-08-19T02:23:19.105Z,7.68
2023-08-19T02:25:46.832Z,8.60
2023-08-19T02:28:14.770Z,7.80
2023-08-19T02:30:42.724Z,7.68
2023-08-19T02:33:12.043Z,7.80
2023-08-19T02:35:39.745Z,7.50
2023-08-19T02:38:07.422Z,8.88
2023-08-19T02:40:35.121Z,7.47
2023-08-19T02:43:03.790Z,7.53
2023-08-19T02:45:36.567Z,7.55
2023-08-19T02:48:04.811Z,7.95
2023-08-19T02:50:34.045Z,6.82
2023-08-19T02:53:01.871Z,7.60
2023-08-19T02:55:29.588Z,7.63
2023-08-19T02:57:57.277Z,8.10
2023-08-19T03:00:25.000Z,8.75
2023-08-19T03:02:52.866Z,7.65
2023-08-19T03:05:21.343Z,8.07
2023-08-19T03:07:50.597Z,7.97
2023-08-19T03:10:18.469Z,8.90
2023-08-19T03:12:46.290Z,8.52
2023-08-19T03:15:14.281Z,8.35
2023-08-19T03:17:42.015Z,8.17
2023-08-19T03:20:11.054Z,7.60
2023-08-19T03:22:39.516Z,7.88
2023-08-19T03:25:09.082Z,8.52
2023-08-19T03:27:36.779Z,8.13
2023-08-19T03:30:05.364Z,8.07
2023-08-19T03:32:33.273Z,8.13
2023-08-19T03:35:01.114Z,7.63
2023-08-19T03:37:28.806Z,7.70
2023-08-19T03:39:56.520Z,8.18
2023-08-19T03:42:26.056Z,7.80
2023-08-19T03:44:54.108Z,8.40
2023-08-19T03:47:22.196Z,8.45
2023-08-19T03:49:49.908Z,8.82
2023-08-19T03:52:18.107Z,8.60
2023-08-19T03:54:45.875Z,8.85
2023-08-19T03:57:13.614Z,7.95
2023-08-19T03:59:43.129Z,9.02
2023-08-19T04:02:10.848Z,7.55
2023-08-19T04:04:38.729Z,9.97
2023-08-19T04:07:06.708Z,8.38
2023-08-19T04:09:34.437Z,9.30
2023-08-19T04:12:02.198Z,8.20
2023-08-19T04:14:30.126Z,8.73
2023-08-19T04:16:59.287Z,8.55
2023-08-19T04:19:27.020Z,7.90
2023-08-19T04:21:54.733Z,8.70
2023-08-19T04:24:22.404Z,9.55
2023-08-19T04:26:50.265Z,8.30
2023-08-19T04:29:17.952Z,8.35
2023-08-19T04:31:46.222Z,8.80
2023-08-19T04:34:15.414Z,8.52
2023-08-19T04:36:43.221Z,8.43
2023-08-19T04:39:10.977Z,8.65
2023-08-19T04:41:38.672Z,8.93
2023-08-19T04:44:07.408Z,8.15
2023-08-19T04:46:35.303Z,8.60
2023-08-19T04:49:04.312Z,7.63
2023-08-19T04:51:33.830Z,8.68
2023-08-19T04:54:01.768Z,8.40
2023-08-19T04:56:29.433Z,7.30
2023-08-19T04:59:01.237Z,6.68
2023-08-19T05:01:29.039Z,7.05
2023-08-19T05:03:56.940Z,6.70
2023-08-19T05:06:24.724Z,7.07
2023-08-19T05:08:54.235Z,7.60
2023-08-19T05:11:21.921Z,7.30
2023-08-19T05:13:49.646Z,7.68
2023-08-19T05:16:17.450Z,6.60
2023-08-19T05:18:45.166Z,7.22
2023-08-19T05:21:12.862Z,6.88
2023-08-19T05:23:40.581Z,7.47
2023-08-19T05:26:09.963Z,6.80
2023-08-19T05:28:37.979Z,6.57
2023-08-19T05:31:05.702Z,6.93
2023-08-19T05:33:33.447Z,6.07
2023-08-19T05:36:01.200Z,5.78
2023-08-19T05:38:28.867Z,5.43
2023-08-19T05:40:58.598Z,5.30
2023-08-19T05:43:27.701Z,5.57
2023-08-19T05:45:55.756Z,5.22
2023-08-19T05:48:25.298Z,5.10
2023-08-19T05:50:52.987Z,5.10
2023-08-19T05:53:20.654Z,4.90
2023-08-19T05:55:48.890Z,4.93
2023-08-19T05:58:17.197Z,4.60
2023-08-19T06:00:46.323Z,4.60
2023-08-19T06:03:14.718Z,4.45
2023-08-19T06:05:43.031Z,4.60
2023-08-19T06:08:11.201Z,4.40
2023-08-19T06:10:44.795Z,4.00
2023-08-19T06:13:12.626Z,3.78
2023-08-19T06:15:40.339Z,3.75
2023-08-19T06:18:09.799Z,3.90
2023-08-19T06:20:37.749Z,3.55
2023-08-19T06:23:05.818Z,4.15
2023-08-19T06:25:34.048Z,3.63
2023-08-19T06:28:01.710Z,3.45
2023-08-19T06:30:29.489Z,3.53
2023-08-19T06:32:57.714Z,3.40
2023-08-19T06:35:28.192Z,3.70
2023-08-19T06:37:57.937Z,2.85
2023-08-19T06:40:27.238Z,3.05
2023-08-19T06:42:55.455Z,2.97
2023-08-19T06:45:24.463Z,2.90
2023-08-19T06:47:54.951Z,2.80
2023-08-19T06:50:24.221Z,2.97
2023-08-19T06:52:54.001Z,2.95
2023-08-19T06:55:36.534Z,3.00
2023-08-19T06:58:05.789Z,2.90
2023-08-19T07:00:34.704Z,2.50
2023-08-19T07:03:14.095Z,2.60
2023-08-19T07:05:42.015Z,2.58
2023-08-19T07:08:12.866Z,3.20
2023-08-19T07:10:41.770Z,2.53
2023-08-19T07:13:10.948Z,2.58
2023-08-19T07:15:40.140Z,2.65
2023-08-19T07:18:11.624Z,2.60
2023-08-19T07:20:39.681Z,2.42
2023-08-19T07:23:08.661Z,2.58
2023-08-19T07:25:38.199Z,2.60
2023-08-19T07:28:07.053Z,2.80
2023-08-19T07:30:35.605Z,2.50
2023-08-19T07:33:05.458Z,2.33
2023-08-19T07:35:33.245Z,2.60
2023-08-19T07:38:00.935Z,2.40
2023-08-19T07:40:28.619Z,2.60
2023-08-19T07:42:58.190Z,2.38
2023-08-19T07:45:26.127Z,2.50
2023-08-19T07:47:53.886Z,2.43
2023-08-19T07:50:21.768Z,2.50
2023-08-19T07:52:49.607Z,2.20
2023-08-19T07:55:17.453Z,2.10
2023-08-19T07:57:45.172Z,1.83
2023-08-19T08:00:14.974Z,2.33
2023-08-19T08:02:42.688Z,2.15
2023-08-19T08:05:11.668Z,2.03
2023-08-19T08:07:39.492Z,2.17
2023-08-19T08:10:07.752Z,2.10
2023-08-19T08:12:35.505Z,2.28
2023-08-19T08:15:03.842Z,2.10
2023-08-19T08:17:33.561Z,2.28
2023-08-19T08:20:01.374Z,2.00
2023-08-19T08:22:29.334Z,2.13
2023-08-19T08:24:57.806Z,2.03
2023-08-19T08:27:25.547Z,2.13
2023-08-19T08:29:53.602Z,1.80
2023-08-19T08:32:21.358Z,2.08
2023-08-19T08:34:50.583Z,2.10
2023-08-19T08:37:18.269Z,1.90
2023-08-19T08:39:46.663Z,1.85
2023-08-19T08:42:14.725Z,1.90
2023-08-19T08:44:42.680Z,2.20
2023-08-19T08:47:10.668Z,1.98
2023-08-19T08:49:38.851Z,2.20
2023-08-19T08:52:08.628Z,2.20
2023-08-19T08:54:36.329Z,2.47
2023-08-19T08:57:04.072Z,2.30
2023-08-19T08:59:32.154Z,2.22
2023-08-19T09:02:01.126Z,2.20
2023-08-19T09:04:30.708Z,2.42
2023-08-19T09:07:06.623Z,2.10
2023-08-19T09:09:36.698Z,2.30
2023-08-19T09:12:06.611Z,2.10
2023-08-19T09:14:41.113Z,2.20
2023-08-19T09:17:09.006Z,2.20
2023-08-19T09:19:37.504Z,1.83
2023-08-19T09:22:13.002Z,2.15
2023-08-19T09:24:42.097Z,2.10
2023-08-19T09:27:09.862Z,2.35
2023-08-19T09:29:37.894Z,1.90
2023-08-19T09:32:06.473Z,2.10
2023-08-19T09:34:34.745Z,2.00
2023-08-19T09:37:03.925Z,1.90
2023-08-19T09:39:35.831Z,1.75
2023-08-19T09:42:05.304Z,2.08
2023-08-19T09:44:33.933Z,1.80
2023-08-19T09:47:04.493Z,1.85
2023-08-19T09:49:32.300Z,1.98
2023-08-19T09:52:00.455Z,1.63
2023-08-19T09:54:28.289Z,2.40
2023-08-19T09:56:58.295Z,1.85
2023-08-19T09:59:28.270Z,1.98
2023-08-19T10:01:56.127Z,2.42
2023-08-19T10:04:24.313Z,1.90
2023-08-19T10:06:54.177Z,1.93
2023-08-19T10:09:24.610Z,1.85
2023-08-19T10:11:55.252Z,1.95
2023-08-19T10:14:30.948Z,2.03
2023-08-19T10:16:59.697Z,2.35
2023-08-19T10:19:28.561Z,2.00
2023-08-19T10:21:57.798Z,2.30
2023-08-19T10:24:26.064Z,1.80
2023-08-19T10:26:54.012Z,2.20
2023-08-19T10:29:21.831Z,1.90
2023-08-19T10:31:51.269Z,2.33
2023-08-19T10:34:26.820Z,2.00
2023-08-19T10:37:08.573Z,1.98
2023-08-19T10:39:36.425Z,1.80
2023-08-19T10:42:04.933Z,2.10
2023-08-19T10:44:34.557Z,2.08
2023-08-19T10:47:15.084Z,2.03
2023-08-19T10:49:43.066Z,2.22
2023-08-19T10:52:22.072Z,2.20
2023-08-19T10:54:49.847Z,2.30
2023-08-19T10:57:23.373Z,2.40
2023-08-19T10:59:53.523Z,2.67
2023-08-19T11:02:22.814Z,2.47
2023-08-19T11:04:51.793Z,2.67
2023-08-19T11:07:20.170Z,2.40
2023-08-19T11:09:49.380Z,2.63
2023-08-19T11:12:18.352Z,2.33
2023-08-19T11:14:48.681Z,3.20
2023-08-19T11:17:39.702Z,2.45
2023-08-19T11:20:11.774Z,2.47
2023-08-19T11:22:43.458Z,2.42
2023-08-19T11:25:11.295Z,2.53
2023-08-19T11:27:39.056Z,2.80
2023-08-19T11:30:10.261Z,2.83
2023-08-19T11:32:38.171Z,2.60
2023-08-19T11:35:06.642Z,2.80
2023-08-19T11:37:35.720Z,2.80
2023-08-19T11:40:14.737Z,2.58
2023-08-19T11:42:50.350Z,2.70
2023-08-19T11:45:19.341Z,3.13
2023-08-19T11:47:47.357Z,3.10
2023-08-19T11:50:15.416Z,3.05
2023-08-19T11:52:51.316Z,3.00
2023-08-19T11:55:19.050Z,3.30
2023-08-19T11:57:46.705Z,3.13
2023-08-19T12:00:17.448Z,3.30
2023-08-19T12:05:23.415Z,3.50
2023-08-19T12:07:52.568Z,3.10
2023-08-19T12:10:20.584Z,3.27
2023-08-19T12:13:00.965Z,3.20
2023-08-19T12:15:28.847Z,3.30
2023-08-19T12:17:57.858Z,3.47
2023-08-19T12:20:25.746Z,3.28
2023-08-19T12:22:54.888Z,3.25
2023-08-19T12:25:23.249Z,4.00
2023-08-19T12:27:50.961Z,3.83
2023-08-19T12:30:18.656Z,3.38
2023-08-19T12:32:46.381Z,4.20
2023-08-19T12:35:14.337Z,3.95
2023-08-19T12:37:42.173Z,3.78
2023-08-19T12:40:12.021Z,3.97
2023-08-19T12:42:48.242Z,4.20
2023-08-19T12:45:16.809Z,3.88
2023-08-19T12:47:44.602Z,4.40
2023-08-19T12:50:13.536Z,3.95
2023-08-19T12:52:43.412Z,4.30
2023-08-19T12:55:13.892Z,4.43
2023-08-19T12:57:43.804Z,4.45
2023-08-19T13:00:13.371Z,4.65
2023-08-19T13:02:41.472Z,4.55
2023-08-19T13:05:09.772Z,4.53
2023-08-19T13:07:37.477Z,4.82
2023-08-19T13:10:06.248Z,5.00
2023-08-19T13:12:35.485Z,5.50
2023-08-19T13:15:03.917Z,5.30
2023-08-19T13:17:31.662Z,6.13
2023-08-19T13:19:59.355Z,6.10
2023-08-19T13:22:27.205Z,5.82
2023-08-19T13:24:54.970Z,6.03
2023-08-19T13:27:22.686Z,6.20
2023-08-19T13:29:51.806Z,5.80
2023-08-19T13:32:19.494Z,5.70
2023-08-19T13:34:47.216Z,4.93
2023-08-19T13:37:14.921Z,5.45
2023-08-19T13:39:42.697Z,5.30
2023-08-19T13:42:10.496Z,5.68
2023-08-19T13:44:38.206Z,5.03
2023-08-19T13:47:07.571Z,5.07
2023-08-19T13:49:35.544Z,4.63
2023-08-19T13:52:03.709Z,4.85
2023-08-19T13:54:31.434Z,5.40
2023-08-19T13:57:00.061Z,5.32
2023-08-19T13:59:27.789Z,5.40
2023-08-19T14:01:55.551Z,6.00
2023-08-19T14:04:24.916Z,5.90
2023-08-19T14:06:52.778Z,6.17
2023-08-19T14:09:20.462Z,6.18
2023-08-19T14:11:48.167Z,6.10
2023-08-19T14:14:15.984Z,6.47
2023-08-19T14:16:54.210Z,6.85
2023-08-19T14:19:21.914Z,7.50
2023-08-19T14:21:51.081Z,7.55
2023-08-19T14:24:18.772Z,8.40
2023-08-19T14:26:46.577Z,9.40
2023-08-19T14:29:14.536Z,9.13
2023-08-19T14:31:42.288Z,10.17
2023-08-19T14:34:09.956Z,10.77
2023-08-19T14:36:37.675Z,12.10
2023-08-19T14:39:07.142Z,12.20
2023-08-19T14:41:34.817Z,13.23
2023-08-19T14:44:02.531Z,12.85
2023-08-19T14:46:30.250Z,14.48
2023-08-19T14:48:58.205Z,15.48
2023-08-19T14:51:25.852Z,16.02
2023-08-19T14:53:53.716Z,15.48
2023-08-19T14:56:22.838Z,16.70
2023-08-19T14:58:50.952Z,16.73
2023-08-19T15:01:19.908Z,17.40
2023-08-19T15:03:47.760Z,16.50
2023-08-19T15:06:16.001Z,16.60
2023-08-19T15:08:43.718Z,16.77
2023-08-19T15:11:12.564Z,17.55
2023-08-19T15:13:41.750Z,17.60
2023-08-19T15:16:09.684Z,18.17
2023-08-19T15:18:37.452Z,18.48
2023-08-19T15:21:05.418Z,18.05
2023-08-19T15:23:33.131Z,18.77
2023-08-19T15:26:00.815Z,19.85
2023-08-19T15:28:28.498Z,18.92
2023-08-19T15:30:57.601Z,21.25
2023-08-19T15:33:25.458Z,21.75
2023-08-19T15:35:53.248Z,22.83
2023-08-19T15:38:21.040Z,21.65
2023-08-19T15:40:48.859Z,21.42
2023-08-19T15:43:16.599Z,22.75
2023-08-19T15:45:44.332Z,24.95
2023-08-19T15:48:13.442Z,25.63
2023-08-19T15:50:41.129Z,23.60
2023-08-19T15:53:08.883Z,24.48
2023-08-19T15:55:37.399Z,25.60
2023-08-19T15:58:05.489Z,24.65
2023-08-19T16:00:33.211Z,26.15
2023-08-19T16:03:01.082Z,26.58
2023-08-19T16:05:30.255Z,26.95
2023-08-19T16:07:59.255Z,25.80
2023-08-19T16:10:27.001Z,25.50
2023-08-19T16:12:54.734Z,26.27
2023-08-19T16:15:22.440Z,24.08
2023-08-19T16:17:50.524Z,23.55
2023-08-19T16:20:18.401Z,23.10
2023-08-19T16:22:48.002Z,20.52
2023-08-19T16:25:15.989Z,19.55
2023-08-19T16:27:43.693Z,19.10
2023-08-19T16:30:12.700Z,19.48
2023-08-19T16:32:40.436Z,18.35
2023-08-19T16:35:09.247Z,18.13
2023-08-19T16:40:20.148Z,17.98
2023-08-19T16:42:47.869Z,16.83
2023-08-19T16:45:15.592Z,15.18
2023-08-19T16:47:43.355Z,14.57
2023-08-19T16:50:11.571Z,14.07
2023-08-19T16:52:39.601Z,12.95
2023-08-19T16:55:08.968Z,13.30
2023-08-19T16:57:39.805Z,12.35
2023-08-19T17:00:09.177Z,12.83
2023-08-19T17:02:37.231Z,11.73
2023-08-19T17:05:05.591Z,11.45
2023-08-19T17:07:33.657Z,11.07
2023-08-19T17:10:02.049Z,10.73
2023-08-19T17:12:31.489Z,10.63
2023-08-19T17:15:00.611Z,9.35
2023-08-19T17:17:28.397Z,9.88
2023-08-19T17:19:56.303Z,10.00
2023-08-19T17:22:24.187Z,9.77
2023-08-19T17:25:13.537Z,9.48
2023-08-19T17:27:41.263Z,9.57
2023-08-19T17:30:12.103Z,9.48
2023-08-19T17:33:04.674Z,9.60
2023-08-19T17:35:36.258Z,9.20
2023-08-19T17:38:05.119Z,10.10
2023-08-19T17:40:33.306Z,9.25
2023-08-19T17:43:01.015Z,9.93
2023-08-19T17:45:30.266Z,10.15
2023-08-19T17:47:57.965Z,10.20
2023-08-19T17:53:01.871Z,10.50
2023-08-19T17:55:29.658Z,9.38
2023-08-19T17:57:57.586Z,10.52
2023-08-19T18:00:25.606Z,11.93
2023-08-19T18:02:54.847Z,11.80
2023-08-19T18:05:22.676Z,12.52
2023-08-19T18:07:50.371Z,12.80
2023-08-19T18:10:18.261Z,12.43
2023-08-19T18:12:46.078Z,11.65
2023-08-19T18:15:14.211Z,12.60
2023-08-19T18:17:43.984Z,13.23
2023-08-19T18:20:13.759Z,11.00
2023-08-19T18:22:41.456Z,12.18
2023-08-19T18:25:10.408Z,11.98
2023-08-19T18:27:40.437Z,13.50
2023-08-19T18:30:10.210Z,11.70
2023-08-19T18:32:38.200Z,10.45
2023-08-19T18:35:06.889Z,13.77
2023-08-19T18:37:36.402Z,10.40
2023-08-19T18:40:05.737Z,10.07
2023-08-19T18:42:34.716Z,9.63
2023-08-19T18:45:02.580Z,10.45
2023-08-19T18:47:30.390Z,12.38
2023-08-19T18:49:58.157Z,12.48
2023-08-19T18:52:25.833Z,11.70
2023-08-19T18:54:55.328Z,11.63
2023-08-19T18:57:22.992Z,12.18
2023-08-19T18:59:50.649Z,13.65
2023-08-19T19:02:18.347Z,15.95
2023-08-19T19:04:46.156Z,13.98
2023-08-19T19:07:13.839Z,16.33
2023-08-19T19:09:41.508Z,16.50
2023-08-19T19:12:11.063Z,17.85
2023-08-19T19:14:38.754Z,16.17
2023-08-19T19:17:28.615Z,14.98
2023-08-19T19:19:56.293Z,16.63
2023-08-19T19:22:24.010Z,16.48
2023-08-19T19:24:51.663Z,18.30
2023-08-19T19:27:20.940Z,18.83
2023-08-19T19:29:48.617Z,17.95
2023-08-19T19:32:16.296Z,15.80
2023-08-19T19:34:44.164Z,16.30
2023-08-19T19:37:11.837Z,15.93
2023-08-19T19:39:39.540Z,14.90
2023-08-19T19:42:07.656Z,18.92
2023-08-19T19:44:36.767Z,20.70
2023-08-19T19:47:22.789Z,23.20
2023-08-19T19:49:50.822Z,26.35
2023-08-19T19:52:18.521Z,26.73
2023-08-19T19:54:47.505Z,20.58
2023-08-19T19:57:15.186Z,18.93
2023-08-19T19:59:44.266Z,17.92
2023-08-19T20:02:12.210Z,18.07
2023-08-19T20:04:40.233Z,21.13
2023-08-19T20:07:08.099Z,25.25
2023-08-19T20:09:35.932Z,24.63
2023-08-19T20:12:03.584Z,24.58
2023-08-19T20:14:31.252Z,22.77
2023-08-19T20:17:00.304Z,23.77
2023-08-19T20:19:27.982Z,21.25
2023-08-19T20:21:55.789Z,24.70
2023-08-19T20:24:23.445Z,25.98
2023-08-19T20:26:51.167Z,25.05
2023-08-19T20:29:19.060Z,24.50
2023-08-19T20:31:46.776Z,22.05
2023-08-19T20:34:16.010Z,21.57
2023-08-19T20:36:44.309Z,20.33
2023-08-19T20:39:16.069Z,19.55
2023-08-19T20:41:44.223Z,18.30
2023-08-19T20:44:12.627Z,17.40
2023-08-19T20:46:40.612Z,14.20
2023-08-19T20:49:09.265Z,14.90
2023-08-19T20:51:38.415Z,17.37
2023-08-19T20:54:07.573Z,17.73
2023-08-19T20:56:35.520Z,14.23
2023-08-19T20:59:03.230Z,14.23
2023-08-19T21:01:32.984Z,15.38
2023-08-19T21:04:00.793Z,14.10
2023-08-19T21:06:29.732Z,14.00
2023-08-19T21:08:58.925Z,13.27
2023-08-19T21:11:26.719Z,11.73
2023-08-19T21:13:54.388Z,13.43
2023-08-19T21:16:22.378Z,14.40
2023-08-19T21:18:50.154Z,14.65
2023-08-19T21:21:18.303Z,14.13
2023-08-19T21:23:45.998Z,12.68
2023-08-19T21:26:15.049Z,11.48
2023-08-19T21:28:42.756Z,11.55
2023-08-19T21:31:10.449Z,12.20
2023-08-19T21:33:38.125Z,12.18
2023-08-19T21:36:06.366Z,11.65
2023-08-19T21:38:34.141Z,10.30
2023-08-19T21:41:01.881Z,11.33
2023-08-19T21:43:31.065Z,10.95
2023-08-19T21:45:59.741Z,10.02
2023-08-19T21:48:27.575Z,10.15
2023-08-19T21:50:55.245Z,11.63
2023-08-19T21:53:22.894Z,12.65
2023-08-19T21:55:51.239Z,11.93
2023-08-19T21:58:18.910Z,13.02
2023-08-19T22:00:48.032Z,12.77
2023-08-19T22:03:15.737Z,12.05
2023-08-19T22:05:46.985Z,11.63
2023-08-19T22:08:15.242Z,10.93
2023-08-19T22:10:43.176Z,9.00
2023-08-19T22:13:11.400Z,8.40
2023-08-19T22:15:39.355Z,10.60
2023-08-19T22:18:08.943Z,13.82
2023-08-19T22:23:07.283Z,13.35
2023-08-19T22:25:34.973Z,12.10
2023-08-19T22:28:02.658Z,10.98
2023-08-19T22:30:30.366Z,9.63
2023-08-19T22:32:58.240Z,9.13
2023-08-19T22:35:27.381Z,11.15
2023-08-19T22:37:55.176Z,10.10
2023-08-19T22:40:23.096Z,10.70
2023-08-19T22:42:50.751Z,9.80
2023-08-19T22:45:18.537Z,9.68
2023-08-19T22:47:46.271Z,10.75
2023-08-19T22:50:14.235Z,10.52
2023-08-19T22:52:43.433Z,9.90
2023-08-19T22:55:11.678Z,10.55
2023-08-19T22:57:39.316Z,9.80
2023-08-19T23:00:08.653Z,9.40
2023-08-19T23:02:36.458Z,9.32
2023-08-19T23:05:04.347Z,8.50
2023-08-19T23:07:33.641Z,8.77
2023-08-19T23:10:06.157Z,8.13
2023-08-19T23:12:33.824Z,7.50
2023-08-19T23:15:01.703Z,6.85
2023-08-19T23:17:29.506Z,6.68
2023-08-19T23:19:57.447Z,6.45
2023-08-19T23:22:25.124Z,7.32
2023-08-19T23:24:53.187Z,7.00
2023-08-19T23:27:22.646Z,5.85
2023-08-19T23:29:50.414Z,6.60
2023-08-19T23:32:19.134Z,6.88
2023-08-19T23:34:46.827Z,6.65
2023-08-19T23:37:14.493Z,6.95
2023-08-19T23:39:42.394Z,6.78
2023-08-19T23:42:10.338Z,6.55
2023-08-19T23:44:39.410Z,6.03
2023-08-19T23:47:08.650Z,5.95
2023-08-19T23:49:36.811Z,5.60
2023-08-19T23:52:06.501Z,5.45
2023-08-19T23:54:34.829Z,5.80
2023-08-19T23:57:03.256Z,6.40
2023-08-19T23:59:31.495Z,6.03
